createdAt,value
2023-03-06T00:00:02.634Z,1.11
2023-03-06T00:16:03.648Z,1.17
2023-03-06T00:31:04.412Z,1.28
2023-03-06T00:46:05.453Z,1.33
2023-03-06T01:00:01.411Z,1.44
2023-03-06T01:16:02.479Z,1.56
2023-03-06T01:31:03.251Z,1.61
2023-03-06T01:46:04.231Z,1.61
2023-03-06T02:00:05.129Z,1.56
2023-03-06T02:16:00.851Z,1.5
2023-03-06T02:31:01.922Z,1.33
2023-03-06T02:46:03.390Z,1.22
2023-03-06T03:00:03.736Z,1.06
2023-03-06T03:16:04.538Z,0.78
2023-03-06T03:31:05.381Z,0.5
2023-03-06T03:46:00.938Z,0.28
2023-03-06T04:00:01.800Z,0.11
2023-03-06T04:16:02.939Z,-0.11
2023-03-06T04:31:03.594Z,-0.33
2023-03-06T04:46:04.810Z,-0.56
2023-03-06T05:00:05.329Z,-0.78
2023-03-06T05:16:01.510Z,-1
2023-03-06T05:31:03.502Z,-1.17
2023-03-06T05:46:03.214Z,-1.39
2023-03-06T06:00:03.560Z,-1.44
2023-03-06T06:16:04.830Z,-1.22
2023-03-06T06:31:05.649Z,-0.94
2023-03-06T06:46:24.290Z,-0.5
2023-03-06T07:00:02.576Z,-0.22
2023-03-06T07:16:03.849Z,0.17
2023-03-06T07:31:04.704Z,0.5
2023-03-06T07:46:06.404Z,0.78
2023-03-06T08:00:01.142Z,1.06
2023-03-06T08:16:02.109Z,1.44
2023-03-06T08:31:03.220Z,2.22
2023-03-06T08:46:04.188Z,3.22
2023-03-06T09:00:06.153Z,4.11
2023-03-06T09:16:01.161Z,4.78
2023-03-06T09:31:01.963Z,5.22
2023-03-06T09:46:02.648Z,5.61
2023-03-06T10:00:04.608Z,5.83
2023-03-06T10:16:04.245Z,6.06
2023-03-06T10:31:04.904Z,6.06
2023-03-06T10:46:05.692Z,6.33
2023-03-06T11:00:01.524Z,6.56
2023-03-06T11:16:02.789Z,6.61
2023-03-06T11:31:03.555Z,6.78
2023-03-06T11:46:04.710Z,7.11
2023-03-06T12:00:05.756Z,7.28
2023-03-06T12:16:01.542Z,7.44
2023-03-06T12:31:02.380Z,7.5
2023-03-06T12:46:03.505Z,7.5
2023-03-06T13:00:04.227Z,7.56
2023-03-06T13:16:05.379Z,7.5
2023-03-06T13:31:01.398Z,7.5
2023-03-06T13:46:02.429Z,7.56
2023-03-06T14:00:09.266Z,7.78
2023-03-06T14:16:03.877Z,8.11
2023-03-06T14:31:04.792Z,8.56
2023-03-06T14:46:05.732Z,8.67
2023-03-06T15:00:01.618Z,8.61
2023-03-06T15:16:02.723Z,8.39
2023-03-06T15:31:03.833Z,8.11
2023-03-06T15:46:04.769Z,7.83
2023-03-06T16:00:06.509Z,7.44
2023-03-06T16:16:01.127Z,7.17
2023-03-06T16:31:02.076Z,6.94
2023-03-06T16:46:04.239Z,6.67
2023-03-06T17:00:03.478Z,6.33
2023-03-06T17:16:04.849Z,6
2023-03-06T17:31:05.686Z,5.78
2023-03-06T17:46:01.278Z,5.61
2023-03-06T18:00:02.319Z,5.39
2023-03-06T18:16:03.217Z,5.06
2023-03-06T18:31:04.091Z,4.94
2023-03-06T18:46:05.206Z,5
2023-03-06T19:00:01.211Z,5
2023-03-06T19:16:02.141Z,4.94
2023-03-06T19:31:03.098Z,4.78
2023-03-06T19:46:03.946Z,4.5
2023-03-06T20:00:04.920Z,4.17
2023-03-06T20:16:00.939Z,3.83
2023-03-06T20:31:01.625Z,3.5
2023-03-06T20:46:02.671Z,3.22
2023-03-06T21:00:03.276Z,3.22
2023-03-06T21:16:04.232Z,3.17
2023-03-06T21:31:05.248Z,2.94
2023-03-06T21:46:01.283Z,2.78
2023-03-06T22:00:02.011Z,2.67
2023-03-06T22:16:03.324Z,2.56
2023-03-06T22:31:04.176Z,2.39
2023-03-06T22:46:05.375Z,2.22
2023-03-06T23:00:01.610Z,2.22
2023-03-06T23:16:02.498Z,2.17
2023-03-06T23:31:03.083Z,2
2023-03-06T23:46:03.907Z,1.78
